createdAt,value
2019-04-21T00:00:25.828Z,7.20
2019-04-21T00:02:53.716Z,7.10
2019-04-21T00:05:38.547Z,7.20
2019-04-21T00:08:21.450Z,7.00
2019-04-21T00:10:40.581Z,7.00
2019-04-21T00:13:01.939Z,7.00
2019-04-21T00:15:24.131Z,7.00
2019-04-21T00:17:52.743Z,7.00
2019-04-21T00:20:28.349Z,6.90
2019-04-21T00:22:58.780Z,6.90
2019-04-21T00:25:32.359Z,6.80
2019-04-21T00:27:57.626Z,6.60
2019-04-21T00:30:34.015Z,6.60
2019-04-21T00:32:52.500Z,6.50
2019-04-21T00:35:14.155Z,6.50
2019-04-21T00:37:54.610Z,6.40
2019-04-21T00:40:28.991Z,6.40
2019-04-21T00:42:57.152Z,6.10
2019-04-21T00:45:21.843Z,5.70
2019-04-21T00:47:51.013Z,5.60
2019-04-21T00:50:25.761Z,5.40
2019-04-21T00:53:05.672Z,5.40
2019-04-21T00:55:44.594Z,5.20
2019-04-21T00:58:14.220Z,5.10
2019-04-21T01:00:40.734Z,5.20
2019-04-21T01:03:12.906Z,5.20
2019-04-21T01:05:41.065Z,5.20
2019-04-21T01:08:04.707Z,5.20
2019-04-21T01:10:25.494Z,5.20
2019-04-21T01:13:11.117Z,5.20
2019-04-21T01:15:39.894Z,5.10
2019-04-21T01:17:57.382Z,5.00
2019-04-21T01:20:16.764Z,5.10
2019-04-21T01:22:36.785Z,5.10
2019-04-21T01:25:16.974Z,5.20
2019-04-21T01:27:54.091Z,5.20
2019-04-21T01:30:29.689Z,5.20
2019-04-21T01:32:55.786Z,5.30
2019-04-21T01:35:25.433Z,5.20
2019-04-21T01:37:55.995Z,5.00
2019-04-21T01:40:28.987Z,4.90
2019-04-21T01:42:51.044Z,4.90
2019-04-21T01:45:18.931Z,4.90
2019-04-21T01:47:46.218Z,4.80
2019-04-21T01:50:05.723Z,4.80
2019-04-21T01:52:50.315Z,4.70
2019-04-21T01:55:18.347Z,4.50
2019-04-21T01:57:51.263Z,4.50
2019-04-21T02:00:12.294Z,4.40
2019-04-21T02:02:54.422Z,4.30
2019-04-21T02:05:26.429Z,4.30
2019-04-21T02:07:44.697Z,4.30
2019-04-21T02:10:22.650Z,4.30
2019-04-21T02:12:48.800Z,4.30
2019-04-21T02:15:17.158Z,4.30
2019-04-21T02:17:43.387Z,4.40
2019-04-21T02:20:03.738Z,4.40
2019-04-21T02:22:56.071Z,4.60
2019-04-21T02:25:10.939Z,4.60
2019-04-21T02:27:36.049Z,4.70
2019-04-21T02:30:12.519Z,4.80
2019-04-21T02:32:43.753Z,4.80
2019-04-21T02:35:14.181Z,4.70
2019-04-21T02:37:44.835Z,4.80
2019-04-21T02:40:25.627Z,4.70
2019-04-21T02:42:39.498Z,4.70
2019-04-21T02:45:06.692Z,4.70
2019-04-21T02:54:53.916Z,4.60
2019-04-21T02:57:22.738Z,4.60
2019-04-21T03:02:48.834Z,4.60
2019-04-21T03:10:20.419Z,4.30
2019-04-21T03:15:27.339Z,4.40
2019-04-21T03:20:10.537Z,4.50
2019-04-21T03:22:42.298Z,4.50
2019-04-21T03:27:50.601Z,4.40
2019-04-21T03:30:29.866Z,4.30
2019-04-21T03:35:37.316Z,4.70
2019-04-21T03:44:56.906Z,4.30
2019-04-21T03:49:54.683Z,4.40
2019-04-21T03:52:39.390Z,4.60
2019-04-21T03:55:51.479Z,4.60
2019-04-21T03:58:05.163Z,4.80
2019-04-21T04:00:33.599Z,4.70
2019-04-21T04:06:03.653Z,4.50
2019-04-21T04:11:12.024Z,4.30
2019-04-21T04:18:39.283Z,4.30
2019-04-21T04:21:03.465Z,4.20
2019-04-21T04:23:35.287Z,4.20
2019-04-21T04:26:02.317Z,4.10
2019-04-21T04:28:27.811Z,4.00
2019-04-21T04:30:52.098Z,4.10
2019-04-21T04:33:27.922Z,4.00
2019-04-21T04:38:36.133Z,4.10
2019-04-21T04:41:07.975Z,4.30
2019-04-21T04:43:25.633Z,4.40
2019-04-21T04:45:56.546Z,4.40
2019-04-21T04:48:29.159Z,4.50
2019-04-21T04:50:55.235Z,4.70
2019-04-21T04:55:45.784Z,5.10
2019-04-21T04:58:23.442Z,5.10
2019-04-21T05:00:54.524Z,5.10
2019-04-21T05:11:31.064Z,5.10
2019-04-21T05:13:55.477Z,5.10
2019-04-21T05:16:31.609Z,5.20
2019-04-21T05:18:59.785Z,5.30
2019-04-21T05:21:23.229Z,5.40
2019-04-21T05:23:38.820Z,5.40
2019-04-21T05:26:00.116Z,5.50
2019-04-21T05:28:26.005Z,5.70
2019-04-21T05:31:17.983Z,5.80
2019-04-21T05:33:59.094Z,5.90
2019-04-21T05:36:27.881Z,6.00
2019-04-21T05:39:10.331Z,6.10
2019-04-21T05:41:26.589Z,6.30
2019-04-21T05:44:06.242Z,6.60
2019-04-21T05:46:39.803Z,6.60
2019-04-21T05:49:15.379Z,6.80
2019-04-21T05:51:56.584Z,7.00
2019-04-21T05:54:40.831Z,7.10
2019-04-21T05:57:01.146Z,7.20
2019-04-21T05:59:26.471Z,7.40
2019-04-21T06:02:05.897Z,7.60
2019-04-21T06:04:38.471Z,7.70
2019-04-21T06:06:56.942Z,7.80
2019-04-21T06:09:32.522Z,7.90
2019-04-21T06:11:59.506Z,8.00
2019-04-21T06:14:30.469Z,8.30
2019-04-21T06:16:55.647Z,8.40
2019-04-21T06:19:30.695Z,8.60
2019-04-21T06:21:50.871Z,8.70
2019-04-21T06:24:20.436Z,8.80
2019-04-21T06:27:00.403Z,8.90
2019-04-21T06:29:15.427Z,9.00
2019-04-21T06:34:17.338Z,9.30
2019-04-21T06:37:35.535Z,9.50
2019-04-21T06:39:31.818Z,9.60
2019-04-21T06:41:58.847Z,9.80
2019-04-21T06:44:20.344Z,9.90
2019-04-21T06:46:48.899Z,10.10
2019-04-21T06:49:22.305Z,10.20
2019-04-21T06:51:57.622Z,10.30
2019-04-21T06:54:25.556Z,10.50
2019-04-21T06:57:00.450Z,10.60
2019-04-21T06:59:17.133Z,10.80
2019-04-21T07:01:55.246Z,10.90
2019-04-21T07:06:52.042Z,11.30
2019-04-21T07:11:37.806Z,11.60
2019-04-21T07:14:27.238Z,11.80
2019-04-21T07:16:44.908Z,11.90
2019-04-21T07:19:13.105Z,12.00
2019-04-21T07:21:35.684Z,12.20
2019-04-21T07:24:05.199Z,12.40
2019-04-21T07:26:31.136Z,12.60
2019-04-21T07:29:09.063Z,12.70
2019-04-21T07:31:34.807Z,12.70
2019-04-21T07:33:57.595Z,12.90
2019-04-21T07:36:38.294Z,13.00
2019-04-21T07:38:52.198Z,13.20
2019-04-21T07:41:15.814Z,13.40
2019-04-21T07:44:04.088Z,13.50
2019-04-21T07:46:28.750Z,13.60
2019-04-21T07:49:06.641Z,13.60
2019-04-21T07:51:45.211Z,13.60
2019-04-21T07:54:18.676Z,13.70
2019-04-21T07:56:25.534Z,13.80
2019-04-21T07:59:06.973Z,14.10
2019-04-21T08:01:35.301Z,14.30
2019-04-21T08:04:20.883Z,14.20
2019-04-21T08:06:33.657Z,14.50
2019-04-21T08:09:02.673Z,14.70
2019-04-21T08:11:25.865Z,14.80
2019-04-21T08:13:57.789Z,14.80
2019-04-21T08:16:31.874Z,15.10
2019-04-21T08:18:59.456Z,15.20
2019-04-21T08:21:23.614Z,15.30
2019-04-21T08:23:48.421Z,15.40
2019-04-21T08:26:29.199Z,15.50
2019-04-21T08:28:52.468Z,15.70
2019-04-21T08:31:24.099Z,16.10
2019-04-21T08:36:28.124Z,16.20
2019-04-21T08:38:50.511Z,16.40
2019-04-21T08:41:12.475Z,16.70
2019-04-21T08:46:13.099Z,17.00
2019-04-21T08:48:37.591Z,17.20
2019-04-21T08:51:22.502Z,17.10
2019-04-21T08:56:21.438Z,17.40
2019-04-21T08:59:12.788Z,17.50
2019-04-21T09:01:55.568Z,17.50
2019-04-21T09:04:26.156Z,17.50
2019-04-21T09:09:28.844Z,17.70
2019-04-21T09:11:53.838Z,17.90
2019-04-21T09:14:27.333Z,17.50
2019-04-21T09:16:54.925Z,17.50
2019-04-21T09:19:35.379Z,17.80
2019-04-21T09:21:52.945Z,17.80
2019-04-21T09:24:24.608Z,18.00
2019-04-21T09:26:48.081Z,18.00
2019-04-21T09:29:07.703Z,18.20
2019-04-21T09:31:30.940Z,18.30
2019-04-21T09:33:58.706Z,18.30
2019-04-21T09:36:25.448Z,18.60
2019-04-21T09:39:00.037Z,18.80
2019-04-21T09:41:22.922Z,18.70
2019-04-21T09:43:52.210Z,18.80
2019-04-21T09:46:16.795Z,19.10
2019-04-21T09:48:53.223Z,19.20
2019-04-21T09:51:12.967Z,19.20
2019-04-21T09:53:43.297Z,19.30
2019-04-21T09:56:14.211Z,19.50
2019-04-21T09:58:44.028Z,19.70
2019-04-21T10:01:15.662Z,19.60
2019-04-21T10:03:41.392Z,19.50
2019-04-21T10:06:02.387Z,19.60
2019-04-21T10:08:29.552Z,19.70
2019-04-21T10:10:56.964Z,19.70
2019-04-21T10:13:23.682Z,19.90
2019-04-21T10:16:08.767Z,19.80
2019-04-21T10:18:36.000Z,20.00
2019-04-21T10:21:03.227Z,19.70
2019-04-21T10:23:29.982Z,20.10
2019-04-21T10:25:56.851Z,20.30
2019-04-21T10:28:23.498Z,20.10
2019-04-21T10:30:50.955Z,20.10
2019-04-21T10:33:18.579Z,20.10
2019-04-21T10:35:46.701Z,20.20
2019-04-21T10:38:23.054Z,20.40
2019-04-21T10:40:41.679Z,20.70
2019-04-21T10:43:10.756Z,20.80
2019-04-21T10:45:36.932Z,21.10
2019-04-21T10:48:05.382Z,21.40
2019-04-21T10:50:32.007Z,21.20
2019-04-21T10:53:01.350Z,21.40
2019-04-21T10:55:45.057Z,21.40
2019-04-21T10:58:12.376Z,21.40
2019-04-21T11:00:44.001Z,21.20
2019-04-21T11:03:24.827Z,21.50
2019-04-21T11:05:54.588Z,21.30
2019-04-21T11:08:28.364Z,21.10
2019-04-21T11:10:50.420Z,21.30
2019-04-21T11:13:16.950Z,21.50
2019-04-21T11:15:45.351Z,21.70
2019-04-21T11:18:12.236Z,21.60
2019-04-21T11:20:40.489Z,21.70
2019-04-21T11:23:08.041Z,21.80
2019-04-21T11:25:35.836Z,22.10
2019-04-21T11:28:02.949Z,21.90
2019-04-21T11:30:30.069Z,22.30
2019-04-21T11:32:57.166Z,22.40
2019-04-21T11:35:23.755Z,22.30
2019-04-21T11:37:50.861Z,22.70
2019-04-21T11:40:19.731Z,23.00
2019-04-21T11:42:57.750Z,23.10
2019-04-21T11:45:36.670Z,24.10
2019-04-21T11:48:42.107Z,24.50
2019-04-21T11:51:11.062Z,23.90
2019-04-21T11:53:48.789Z,24.50
2019-04-21T11:56:16.723Z,24.60
2019-04-21T11:58:43.987Z,24.30
2019-04-21T12:01:12.186Z,24.20
2019-04-21T12:03:39.932Z,24.20
2019-04-21T12:06:06.873Z,24.00
2019-04-21T12:08:40.735Z,24.10
2019-04-21T12:11:49.673Z,23.40
2019-04-21T12:14:32.122Z,23.30
2019-04-21T12:17:05.839Z,23.30
2019-04-21T12:19:34.623Z,23.40
2019-04-21T12:22:11.387Z,23.80
2019-04-21T12:24:34.548Z,23.70
2019-04-21T12:27:02.267Z,23.90
2019-04-21T12:29:33.584Z,23.30
2019-04-21T12:32:35.890Z,23.60
2019-04-21T12:35:09.974Z,23.90
2019-04-21T12:37:47.290Z,23.70
2019-04-21T12:40:16.878Z,24.40
2019-04-21T12:42:44.264Z,25.10
2019-04-21T12:45:15.232Z,25.30
2019-04-21T12:47:49.943Z,24.00
2019-04-21T12:51:10.025Z,24.00
2019-04-21T12:53:37.681Z,23.70
2019-04-21T12:56:07.594Z,24.10
2019-04-21T12:58:35.262Z,22.90
2019-04-21T13:01:03.012Z,23.10
2019-04-21T13:03:34.091Z,22.80
2019-04-21T13:06:01.543Z,23.30
2019-04-21T13:08:41.528Z,23.20
2019-04-21T13:10:58.550Z,22.90
2019-04-21T13:13:26.126Z,21.90
2019-04-21T13:15:53.501Z,21.60
2019-04-21T13:18:20.553Z,22.50
2019-04-21T13:20:48.442Z,23.20
2019-04-21T13:23:16.795Z,23.10
2019-04-21T13:25:43.732Z,23.30
2019-04-21T13:28:10.611Z,23.20
2019-04-21T13:30:38.090Z,23.50
2019-04-21T13:33:05.166Z,24.10
2019-04-21T13:35:33.157Z,24.60
2019-04-21T13:38:00.538Z,24.80
2019-04-21T13:40:53.023Z,25.10
2019-04-21T13:43:06.631Z,24.90
2019-04-21T13:45:34.326Z,23.80
2019-04-21T13:48:01.353Z,22.90
2019-04-21T13:50:29.022Z,22.60
2019-04-21T13:52:56.603Z,21.70
2019-04-21T13:55:25.369Z,21.60
2019-04-21T13:57:52.555Z,21.90
2019-04-21T14:00:19.607Z,22.50
2019-04-21T14:02:46.988Z,22.00
2019-04-21T14:05:15.820Z,21.30
2019-04-21T14:07:43.920Z,20.90
2019-04-21T14:10:13.717Z,21.70
2019-04-21T14:12:40.522Z,22.20
2019-04-21T14:15:10.257Z,22.50
2019-04-21T14:17:37.084Z,22.70
2019-04-21T14:20:05.349Z,22.70
2019-04-21T14:22:32.081Z,22.40
2019-04-21T14:24:59.786Z,22.40
2019-04-21T14:27:36.318Z,22.40
2019-04-21T14:30:00.708Z,22.50
2019-04-21T14:32:29.538Z,22.10
2019-04-21T14:34:56.641Z,22.20
2019-04-21T14:37:24.683Z,22.00
2019-04-21T14:39:59.473Z,21.70
2019-04-21T14:42:20.406Z,21.90
2019-04-21T14:44:47.116Z,22.30
2019-04-21T14:47:15.627Z,22.40
2019-04-21T14:49:44.943Z,22.30
2019-04-21T14:52:14.897Z,22.10
2019-04-21T14:54:46.907Z,22.20
2019-04-21T14:57:13.660Z,22.40
2019-04-21T14:59:40.300Z,22.00
2019-04-21T15:02:07.754Z,21.50
2019-04-21T15:04:35.647Z,21.00
2019-04-21T15:07:03.342Z,20.70
2019-04-21T15:09:31.499Z,20.50
2019-04-21T15:11:58.251Z,20.20
2019-04-21T15:14:26.910Z,20.10
2019-04-21T15:16:54.575Z,19.90
2019-04-21T15:19:22.417Z,19.80
2019-04-21T15:21:50.239Z,20.00
2019-04-21T15:24:18.323Z,20.10
2019-04-21T15:26:46.329Z,20.10
2019-04-21T15:29:13.098Z,20.00
2019-04-21T15:31:43.154Z,19.90
2019-04-21T15:34:08.408Z,19.80
2019-04-21T15:36:35.365Z,19.70
2019-04-21T15:39:03.624Z,19.70
2019-04-21T15:41:32.399Z,19.80
2019-04-21T15:44:01.018Z,19.80
2019-04-21T15:46:28.882Z,19.70
2019-04-21T15:48:57.103Z,19.50
2019-04-21T15:51:24.058Z,19.50
2019-04-21T15:53:51.931Z,19.50
2019-04-21T15:56:29.151Z,19.40
2019-04-21T15:59:13.006Z,19.40
2019-04-21T16:01:48.455Z,19.40
2019-04-21T16:04:16.721Z,19.30
2019-04-21T16:06:43.684Z,19.30
2019-04-21T16:09:14.911Z,19.30
2019-04-21T16:11:39.863Z,19.40
2019-04-21T16:14:08.082Z,19.30
2019-04-21T16:16:36.158Z,19.30
2019-04-21T16:19:03.910Z,19.40
2019-04-21T16:21:31.764Z,19.30
2019-04-21T16:24:00.470Z,19.30
2019-04-21T16:26:28.680Z,19.40
2019-04-21T16:28:55.437Z,19.50
2019-04-21T16:31:22.558Z,19.70
2019-04-21T16:33:49.618Z,19.70
2019-04-21T16:36:17.085Z,19.50
2019-04-21T16:38:44.653Z,19.50
2019-04-21T16:41:12.084Z,19.70
2019-04-21T16:43:38.768Z,19.90
2019-04-21T16:46:06.718Z,19.90
2019-04-21T16:48:33.763Z,19.90
2019-04-21T16:51:01.673Z,19.90
2019-04-21T16:53:30.350Z,19.80
2019-04-21T16:55:59.408Z,19.70
2019-04-21T16:58:36.769Z,19.80
2019-04-21T17:01:13.942Z,19.70
2019-04-21T17:03:36.952Z,19.60
2019-04-21T17:06:05.126Z,19.20
2019-04-21T17:08:33.783Z,19.00
2019-04-21T17:11:11.933Z,19.00
2019-04-21T17:13:29.663Z,18.90
2019-04-21T17:16:14.193Z,18.80
2019-04-21T17:18:44.677Z,18.70
2019-04-21T17:20:58.592Z,18.50
2019-04-21T17:23:21.851Z,18.40
2019-04-21T17:25:48.560Z,18.40
2019-04-21T17:28:15.494Z,18.30
2019-04-21T17:30:42.395Z,18.20
2019-04-21T17:33:10.267Z,18.00
2019-04-21T17:35:38.609Z,18.00
2019-04-21T17:38:06.145Z,17.80
2019-04-21T17:40:33.814Z,17.70
2019-04-21T17:43:05.755Z,17.60
2019-04-21T17:45:29.088Z,17.60
2019-04-21T17:48:02.408Z,17.50
2019-04-21T17:50:31.594Z,17.30
2019-04-21T17:53:10.288Z,17.10
2019-04-21T17:55:40.185Z,16.70
2019-04-21T17:58:21.725Z,16.70
2019-04-21T18:03:39.279Z,16.50
2019-04-21T18:05:50.565Z,16.30
2019-04-21T18:08:23.414Z,16.20
2019-04-21T18:10:47.675Z,16.00
2019-04-21T18:13:09.987Z,15.80
2019-04-21T18:15:48.930Z,15.70
2019-04-21T18:18:00.600Z,15.60
2019-04-21T18:20:30.109Z,15.60
2019-04-21T18:23:02.449Z,15.20
2019-04-21T18:25:42.300Z,15.10
2019-04-21T18:28:00.635Z,15.20
2019-04-21T18:30:52.085Z,15.10
2019-04-21T18:33:25.320Z,15.00
2019-04-21T18:36:00.195Z,14.80
2019-04-21T18:38:57.080Z,14.60
2019-04-21T18:41:07.724Z,14.40
2019-04-21T18:44:07.911Z,14.20
2019-04-21T18:46:26.058Z,14.30
2019-04-21T18:48:44.747Z,14.30
2019-04-21T18:51:32.719Z,14.10
2019-04-21T18:54:14.836Z,13.80
2019-04-21T18:56:27.602Z,13.80
2019-04-21T18:58:55.963Z,13.70
2019-04-21T19:01:27.637Z,13.50
2019-04-21T19:03:55.635Z,13.20
2019-04-21T19:06:40.469Z,13.20
2019-04-21T19:09:11.725Z,13.10
2019-04-21T19:11:33.672Z,13.10
2019-04-21T19:21:40.361Z,12.90
2019-04-21T19:24:41.308Z,12.70
2019-04-21T19:26:46.545Z,12.70
2019-04-21T19:29:20.075Z,12.50
2019-04-21T19:31:41.638Z,12.50
2019-04-21T19:33:59.459Z,12.50
2019-04-21T19:36:17.454Z,12.30
2019-04-21T19:38:55.991Z,12.10
2019-04-21T19:41:28.200Z,12.10
2019-04-21T19:43:57.423Z,12.20
2019-04-21T19:46:22.659Z,12.10
2019-04-21T19:49:01.224Z,12.00
2019-04-21T19:51:24.418Z,11.80
2019-04-21T19:53:49.271Z,11.90
2019-04-21T19:56:04.319Z,11.80
2019-04-21T19:58:33.761Z,11.60
2019-04-21T20:00:59.763Z,11.60
2019-04-21T20:03:28.404Z,11.70
2019-04-21T20:06:04.024Z,11.60
2019-04-21T20:08:37.545Z,11.60
2019-04-21T20:11:10.697Z,11.60
2019-04-21T20:13:59.524Z,11.70
2019-04-21T20:16:06.749Z,11.50
2019-04-21T20:18:25.121Z,11.30
2019-04-21T20:20:45.977Z,11.30
2019-04-21T20:23:16.977Z,11.10
2019-04-21T20:25:47.211Z,10.90
2019-04-21T20:28:21.263Z,10.90
2019-04-21T20:30:58.356Z,10.90
2019-04-21T20:35:56.610Z,10.80
2019-04-21T20:38:16.033Z,10.80
2019-04-21T20:40:44.188Z,10.80
2019-04-21T20:43:17.797Z,11.00
2019-04-21T20:45:46.057Z,10.90
2019-04-21T20:48:08.178Z,11.10
2019-04-21T20:50:37.689Z,11.10
2019-04-21T20:53:11.274Z,11.00
2019-04-21T20:55:37.032Z,11.10
2019-04-21T20:58:04.321Z,10.90
2019-04-21T21:00:41.657Z,10.70
2019-04-21T21:03:12.219Z,10.70
2019-04-21T21:05:30.386Z,10.70
2019-04-21T21:08:11.418Z,10.70
2019-04-21T21:10:34.849Z,10.70
2019-04-21T21:13:16.543Z,10.90
2019-04-21T21:15:33.354Z,10.90
2019-04-21T21:18:07.295Z,10.80
2019-04-21T21:20:30.843Z,10.80
2019-04-21T21:22:53.295Z,10.70
2019-04-21T21:25:35.387Z,10.70
2019-04-21T21:27:49.485Z,10.80
2019-04-21T21:30:18.288Z,10.90
2019-04-21T21:32:57.439Z,10.90
2019-04-21T21:35:19.259Z,10.90
2019-04-21T21:37:55.386Z,11.00
2019-04-21T21:40:22.206Z,11.00
2019-04-21T21:42:37.629Z,10.90
2019-04-21T21:45:10.423Z,10.80
2019-04-21T21:47:54.708Z,10.60
2019-04-21T21:50:11.579Z,10.30
2019-04-21T21:52:42.501Z,10.20
2019-04-21T21:54:58.086Z,10.00
2019-04-21T21:57:26.088Z,10.00
2019-04-21T21:59:58.883Z,10.20
2019-04-21T22:02:31.935Z,10.30
2019-04-21T22:04:58.183Z,10.20
2019-04-21T22:07:20.438Z,10.30
2019-04-21T22:09:48.001Z,10.40
2019-04-21T22:12:16.078Z,10.50
2019-04-21T22:14:48.181Z,10.10
2019-04-21T22:17:28.925Z,9.80
2019-04-21T22:20:03.747Z,9.70
2019-04-21T22:22:24.279Z,9.90
2019-04-21T22:24:50.790Z,9.70
2019-04-21T22:27:07.185Z,9.80
2019-04-21T22:29:41.287Z,9.60
2019-04-21T22:32:12.583Z,9.30
2019-04-21T22:34:38.171Z,9.30
2019-04-21T22:37:20.179Z,9.20
2019-04-21T22:39:44.983Z,9.20
2019-04-21T22:42:05.813Z,9.20
2019-04-21T22:44:24.886Z,9.40
2019-04-21T22:47:01.464Z,9.40
2019-04-21T22:49:21.730Z,9.40
2019-04-21T22:51:51.751Z,9.20
2019-04-21T22:54:24.516Z,9.10
2019-04-21T22:56:51.970Z,9.10
2019-04-21T22:59:18.662Z,9.00
2019-04-21T23:01:47.431Z,8.90
2019-04-21T23:04:12.098Z,8.80
2019-04-21T23:06:40.891Z,8.70
2019-04-21T23:09:08.838Z,8.60
2019-04-21T23:11:41.715Z,8.70
2019-04-21T23:14:08.165Z,8.60
2019-04-21T23:16:36.288Z,8.50
2019-04-21T23:19:19.773Z,8.60
2019-04-21T23:21:51.523Z,8.80
2019-04-21T23:24:14.856Z,8.80
2019-04-21T23:26:41.937Z,8.80
2019-04-21T23:29:15.003Z,8.80
2019-04-21T23:31:39.797Z,8.90
2019-04-21T23:33:52.594Z,8.70
2019-04-21T23:36:23.071Z,8.60
2019-04-21T23:38:51.092Z,8.60
2019-04-21T23:41:17.354Z,8.50
2019-04-21T23:43:44.758Z,8.50
2019-04-21T23:46:20.365Z,8.30
2019-04-21T23:48:57.981Z,8.30
2019-04-21T23:51:21.417Z,8.20
2019-04-21T23:53:37.585Z,8.20
2019-04-21T23:56:05.410Z,8.30
2019-04-21T23:58:34.521Z,8.40
